Time;durP1;ratioP1;P1;durP2;ratioP2;P2;SDS_P1;SDS_P2;PMS_P1;PMS_P2;Temp;Humidity;BMP_temperature;BMP_pressure;BME280_temperature;BME280_humidity;BME280_pressure;Samples;Min_cycle;Max_cycle;Signal;HPM_P1;HPM_P2
2021/07/23 00:00:55;;;;;;;13.07;7.30;;;;;;;;;;746652;187;919682;-77
2021/07/23 00:03:20;;;;;;;11.40;8.17;;;;;;;;;;756799;186;919684;-77
2021/07/23 00:05:46;;;;;;;11.10;8.27;;;;;;;;;;744718;187;924670;-76
2021/07/23 00:08:12;;;;;;;10.50;7.35;;;;;;;;;;747774;187;1123983;-80
2021/07/23 00:10:38;;;;;;;13.33;7.57;;;;;;;;;;753796;186;918155;-76
2021/07/23 00:13:04;;;;;;;10.70;7.77;;;;;;;;;;754287;184;919198;-76
2021/07/23 00:15:30;;;;;;;10.93;7.70;;;;;;;;;;753880;183;918973;-76
2021/07/23 00:17:56;;;;;;;11.15;7.53;;;;;;;;;;752448;186;918230;-76
2021/07/23 00:20:21;;;;;;;8.93;7.33;;;;;;;;;;741407;186;1020706;-76
2021/07/23 00:22:47;;;;;;;11.33;8.30;;;;;;;;;;745786;186;919830;-76
2021/07/23 00:25:13;;;;;;;10.87;8.03;;;;;;;;;;746730;186;919962;-77
2021/07/23 00:27:39;;;;;;;11.23;7.80;;;;;;;;;;756318;184;928585;-76
2021/07/23 00:30:06;;;;;;;10.13;8.10;;;;;;;;;;748262;186;916431;-76
2021/07/23 00:32:31;;;;;;;10.88;7.93;;;;;;;;;;753394;182;1021257;-76
2021/07/23 00:34:57;;;;;;;9.70;7.87;;;;;;;;;;765111;183;919412;-76
2021/07/23 00:37:23;;;;;;;10.73;8.63;;;;;;;;;;747554;183;1021053;-76
2021/07/23 00:39:49;;;;;;;11.00;8.93;;;;;;;;;;758937;181;922591;-76
2021/07/23 00:42:15;;;;;;;10.93;8.50;;;;;;;;;;768722;182;920692;-77
2021/07/23 00:44:40;;;;;;;13.37;8.97;;;;;;;;;;748095;183;921640;-76
2021/07/23 00:47:06;;;;;;;13.93;9.23;;;;;;;;;;756320;182;915084;-76
2021/07/23 00:49:32;;;;;;;8.15;6.47;;;;;;;;;;763957;182;928236;-74
2021/07/23 00:51:58;;;;;;;9.30;7.57;;;;;;;;;;759733;183;919301;-76
2021/07/23 00:54:24;;;;;;;10.50;7.87;;;;;;;;;;750603;183;919392;-76
2021/07/23 00:56:50;;;;;;;13.77;7.50;;;;;;;;;;748517;186;915809;-76
2021/07/23 00:59:16;;;;;;;9.30;7.17;;;;;;;;;;756984;182;914025;-76
2021/07/23 01:01:42;;;;;;;10.33;8.00;;;;;;;;;;757239;183;914580;-76
2021/07/23 01:04:07;;;;;;;11.70;7.43;;;;;;;;;;746496;187;920350;-76
2021/07/23 01:06:33;;;;;;;11.10;7.30;;;;;;;;;;754250;186;919714;-76
2021/07/23 01:08:59;;;;;;;12.70;6.60;;;;;;;;;;747632;184;919088;-76
2021/07/23 01:11:25;;;;;;;10.80;7.03;;;;;;;;;;747668;186;918700;-75
2021/07/23 01:13:51;;;;;;;11.03;7.10;;;;;;;;;;752898;184;921592;-76
2021/07/23 01:16:17;;;;;;;10.30;6.90;;;;;;;;;;746280;186;916389;-76
2021/07/23 01:18:42;;;;;;;12.73;7.87;;;;;;;;;;745676;187;914654;-76
2021/07/23 01:21:08;;;;;;;13.63;7.07;;;;;;;;;;748251;186;920364;-77
2021/07/23 01:23:34;;;;;;;13.07;7.67;;;;;;;;;;748342;185;1129853;-76
2021/07/23 01:26:00;;;;;;;9.30;7.43;;;;;;;;;;745662;187;916696;-75
2021/07/23 01:28:27;;;;;;;9.47;7.47;;;;;;;;;;743830;187;940603;-75
2021/07/23 01:30:53;;;;;;;14.75;7.40;;;;;;;;;;750764;186;916210;-76
2021/07/23 01:33:18;;;;;;;11.10;8.23;;;;;;;;;;746947;186;915086;-76
2021/07/23 01:35:44;;;;;;;12.73;7.67;;;;;;;;;;743911;187;915586;-75
2021/07/23 01:38:10;;;;;;;10.93;7.40;;;;;;;;;;750204;186;919406;-76
2021/07/23 01:40:36;;;;;;;16.45;7.85;;;;;;;;;;743764;186;919392;-77
2021/07/23 01:43:02;;;;;;;12.90;8.57;;;;;;;;;;748116;186;919010;-76
2021/07/23 01:45:28;;;;;;;12.40;8.20;;;;;;;;;;748980;186;1020867;-73
2021/07/23 01:47:53;;;;;;;11.57;7.97;;;;;;;;;;752745;184;919174;-76
2021/07/23 01:50:19;;;;;;;12.50;8.40;;;;;;;;;;748670;185;918857;-76
2021/07/23 01:52:45;;;;;;;14.17;8.27;;;;;;;;;;749386;186;919634;-75
2021/07/23 01:55:11;;;;;;;12.20;8.30;;;;;;;;;;753870;186;919185;-75
2021/07/23 01:57:37;;;;;;;10.95;7.40;;;;;;;;;;749119;186;918937;-76
2021/07/23 02:00:05;;;;;;;13.80;8.13;;;;;;;;;;754684;183;919077;-76
2021/07/23 02:02:30;;;;;;;12.47;7.80;;;;;;;;;;748437;187;919693;-76
2021/07/23 02:04:59;;;;;;;18.10;8.50;;;;;;;;;;735757;189;918820;-75
2021/07/23 02:07:22;;;;;;;16.33;9.57;;;;;;;;;;748347;186;922582;-76
2021/07/23 02:09:48;;;;;;;15.45;8.18;;;;;;;;;;754547;183;954702;-73
2021/07/23 02:12:14;;;;;;;14.57;9.27;;;;;;;;;;763273;182;1021310;-76
2021/07/23 02:14:40;;;;;;;21.43;8.70;;;;;;;;;;754331;182;917400;-75
2021/07/23 02:17:06;;;;;;;20.63;9.23;;;;;;;;;;746491;186;1023610;-75
2021/07/23 02:19:32;;;;;;;19.23;8.53;;;;;;;;;;754281;186;930456;-76
2021/07/23 02:21:58;;;;;;;13.23;8.73;;;;;;;;;;747118;186;919624;-75
2021/07/23 02:24:23;;;;;;;19.40;10.37;;;;;;;;;;745645;186;918990;-76
2021/07/23 02:26:49;;;;;;;12.93;10.40;;;;;;;;;;758236;184;916625;-75
2021/07/23 02:29:15;;;;;;;18.30;11.03;;;;;;;;;;756726;183;920184;-74
2021/07/23 02:31:41;;;;;;;14.43;10.27;;;;;;;;;;747873;186;918299;-75
2021/07/23 02:34:07;;;;;;;15.57;10.77;;;;;;;;;;753958;186;916187;-76
2021/07/23 02:36:33;;;;;;;21.93;11.27;;;;;;;;;;747699;183;919844;-75
2021/07/23 02:38:59;;;;;;;19.00;13.10;;;;;;;;;;760943;182;917783;-75
2021/07/23 02:41:24;;;;;;;21.10;12.88;;;;;;;;;;752626;184;927088;-75
2021/07/23 02:43:51;;;;;;;21.63;14.97;;;;;;;;;;764653;184;921617;-75
2021/07/23 02:46:16;;;;;;;24.03;14.10;;;;;;;;;;762261;183;919745;-75
2021/07/23 02:48:42;;;;;;;15.33;11.13;;;;;;;;;;761264;180;916226;-75
2021/07/23 02:51:08;;;;;;;23.63;10.50;;;;;;;;;;758853;183;915222;-75
2021/07/23 02:53:34;;;;;;;29.23;11.40;;;;;;;;;;749951;183;916575;-75
2021/07/23 02:55:59;;;;;;;25.33;10.40;;;;;;;;;;745152;187;916784;-75
2021/07/23 02:58:25;;;;;;;15.03;10.93;;;;;;;;;;748752;186;919264;-74
2021/07/23 03:00:51;;;;;;;16.25;11.45;;;;;;;;;;748143;186;918481;-75
2021/07/23 03:03:17;;;;;;;32.43;13.90;;;;;;;;;;755337;183;625444;-75
2021/07/23 03:05:43;;;;;;;29.17;15.13;;;;;;;;;;766895;183;620081;-73
2021/07/23 03:08:09;;;;;;;20.83;12.30;;;;;;;;;;762829;182;918537;-74
2021/07/23 03:10:34;;;;;;;22.90;12.73;;;;;;;;;;772662;179;919546;-75
2021/07/23 03:13:00;;;;;;;18.93;12.33;;;;;;;;;;760700;183;919317;-75
2021/07/23 03:15:26;;;;;;;17.20;11.27;;;;;;;;;;757208;184;919254;-74
2021/07/23 03:17:52;;;;;;;24.13;11.77;;;;;;;;;;744934;186;919185;-74
2021/07/23 03:20:18;;;;;;;29.50;13.70;;;;;;;;;;747960;186;918855;-74
2021/07/23 03:22:44;;;;;;;26.33;13.00;;;;;;;;;;765648;182;918661;-74
2021/07/23 03:25:10;;;;;;;19.00;12.50;;;;;;;;;;757332;182;1019002;-74
2021/07/23 03:27:35;;;;;;;21.50;12.87;;;;;;;;;;748797;186;975625;-74
2021/07/23 03:30:01;;;;;;;29.80;14.97;;;;;;;;;;752883;186;918591;-74
2021/07/23 03:32:27;;;;;;;25.70;14.43;;;;;;;;;;748270;186;920261;-74
2021/07/23 03:34:53;;;;;;;28.37;16.30;;;;;;;;;;746325;186;919345;-78
2021/07/23 03:37:19;;;;;;;36.97;15.13;;;;;;;;;;747723;186;919560;-74
2021/07/23 03:39:45;;;;;;;28.10;14.73;;;;;;;;;;755355;186;918995;-74
2021/07/23 03:42:10;;;;;;;28.33;14.03;;;;;;;;;;759242;182;919065;-74
2021/07/23 03:44:36;;;;;;;46.72;15.75;;;;;;;;;;763270;182;919154;-74
2021/07/23 03:47:02;;;;;;;32.50;15.47;;;;;;;;;;756162;184;916484;-73
2021/07/23 03:49:28;;;;;;;29.13;16.20;;;;;;;;;;760501;182;919083;-74
2021/07/23 03:51:54;;;;;;;41.47;17.70;;;;;;;;;;747773;184;919194;-74
2021/07/23 03:54:20;;;;;;;34.03;17.40;;;;;;;;;;766939;181;917508;-74
2021/07/23 03:56:46;;;;;;;39.13;16.83;;;;;;;;;;749870;187;921763;-74
2021/07/23 03:59:12;;;;;;;41.37;20.00;;;;;;;;;;748001;187;917214;-74
2021/07/23 04:01:37;;;;;;;36.53;18.10;;;;;;;;;;748294;186;918743;-73
2021/07/23 04:04:03;;;;;;;36.33;19.77;;;;;;;;;;750956;186;919246;-74
2021/07/23 04:06:29;;;;;;;37.73;20.90;;;;;;;;;;747878;184;921127;-73
2021/07/23 04:08:55;;;;;;;33.28;19.60;;;;;;;;;;757551;180;919294;-74
2021/07/23 04:11:27;;;;;;;48.67;22.80;;;;;;;;;;755147;187;919529;-74
2021/07/23 04:13:47;;;;;;;46.13;25.12;;;;;;;;;;762321;181;919692;-73
2021/07/23 04:16:13;;;;;;;67.47;32.30;;;;;;;;;;752386;183;919564;-73
2021/07/23 04:18:39;;;;;;;67.40;34.90;;;;;;;;;;766651;183;920215;-74
2021/07/23 04:21:05;;;;;;;62.67;35.17;;;;;;;;;;755467;183;923836;-75
2021/07/23 04:23:31;;;;;;;66.93;36.53;;;;;;;;;;760829;183;1019567;-73
2021/07/23 04:25:57;;;;;;;61.03;35.50;;;;;;;;;;770126;182;915539;-73
2021/07/23 04:28:23;;;;;;;69.47;38.42;;;;;;;;;;764078;182;917882;-73
2021/07/23 04:30:48;;;;;;;62.67;35.17;;;;;;;;;;753663;183;918623;-73
2021/07/23 04:33:14;;;;;;;61.23;35.83;;;;;;;;;;746350;186;917715;-73
2021/07/23 04:35:40;;;;;;;41.10;29.50;;;;;;;;;;752309;186;912597;-74
2021/07/23 04:38:06;;;;;;;45.93;28.40;;;;;;;;;;747002;186;912841;-75
2021/07/23 04:40:32;;;;;;;50.27;29.50;;;;;;;;;;747598;187;915665;-75
2021/07/23 04:42:58;;;;;;;39.73;26.60;;;;;;;;;;748879;186;916681;-74
2021/07/23 04:45:23;;;;;;;44.57;27.97;;;;;;;;;;758952;183;916362;-73
2021/07/23 04:47:49;;;;;;;37.17;26.30;;;;;;;;;;751098;186;925505;-73
2021/07/23 04:50:15;;;;;;;42.50;27.27;;;;;;;;;;752050;187;915203;-73
2021/07/23 04:52:41;;;;;;;42.27;27.07;;;;;;;;;;746508;186;915485;-73
2021/07/23 04:55:08;;;;;;;44.13;26.05;;;;;;;;;;763999;183;921798;-73
2021/07/23 04:57:34;;;;;;;41.43;27.20;;;;;;;;;;749616;187;1016864;-74
2021/07/23 04:59:59;;;;;;;34.60;25.17;;;;;;;;;;765254;184;633904;-74
2021/07/23 05:02:25;;;;;;;32.20;23.87;;;;;;;;;;758506;183;919338;-75
2021/07/23 05:04:51;;;;;;;41.30;25.80;;;;;;;;;;747799;187;915929;-73
2021/07/23 05:07:16;;;;;;;37.35;22.98;;;;;;;;;;752459;186;1021891;-75
2021/07/23 05:09:42;;;;;;;33.87;22.10;;;;;;;;;;746765;187;918633;-75
2021/07/23 05:12:08;;;;;;;32.47;22.95;;;;;;;;;;749596;186;1020632;-75
2021/07/23 05:14:34;;;;;;;35.07;23.30;;;;;;;;;;769105;183;920656;-75
2021/07/23 05:17:00;;;;;;;33.80;23.90;;;;;;;;;;752725;183;940652;-76
2021/07/23 05:19:26;;;;;;;36.33;23.43;;;;;;;;;;749863;186;919537;-76
2021/07/23 05:21:51;;;;;;;31.00;20.40;;;;;;;;;;757794;184;919125;-76
2021/07/23 05:24:17;;;;;;;30.67;21.77;;;;;;;;;;756092;181;1019448;-75
2021/07/23 05:26:43;;;;;;;31.23;21.47;;;;;;;;;;744182;185;1020724;-75
2021/07/23 05:29:09;;;;;;;29.17;21.07;;;;;;;;;;747923;187;918865;-76
2021/07/23 05:31:35;;;;;;;34.00;23.70;;;;;;;;;;759869;183;901383;-76
2021/07/23 05:34:02;;;;;;;28.57;20.30;;;;;;;;;;755641;183;918852;-76
2021/07/23 05:36:27;;;;;;;32.00;21.47;;;;;;;;;;750618;183;919060;-77
2021/07/23 05:38:53;;;;;;;26.97;17.50;;;;;;;;;;764597;183;918886;-77
2021/07/23 05:41:19;;;;;;;27.60;20.20;;;;;;;;;;755766;182;931099;-76
2021/07/23 05:43:45;;;;;;;29.37;18.37;;;;;;;;;;760821;180;919073;-75
2021/07/23 05:46:11;;;;;;;32.28;18.52;;;;;;;;;;765038;183;918308;-77
2021/07/23 05:48:37;;;;;;;25.23;15.90;;;;;;;;;;749198;187;919457;-77
2021/07/23 05:51:02;;;;;;;23.40;14.07;;;;;;;;;;747170;186;918603;-76
2021/07/23 05:53:28;;;;;;;21.43;14.10;;;;;;;;;;747524;186;947631;-79
2021/07/23 05:55:54;;;;;;;17.90;13.20;;;;;;;;;;754909;186;918547;-78
2021/07/23 05:58:20;;;;;;;20.40;14.30;;;;;;;;;;747294;186;918946;-78
2021/07/23 06:00:46;;;;;;;27.47;14.87;;;;;;;;;;748752;186;919114;-76
2021/07/23 06:03:12;;;;;;;22.53;15.57;;;;;;;;;;756236;186;816808;-79
2021/07/23 06:05:37;;;;;;;22.30;15.40;;;;;;;;;;746581;186;918314;-76
2021/07/23 06:08:03;;;;;;;21.40;13.83;;;;;;;;;;746065;186;1020364;-78
2021/07/23 06:10:29;;;;;;;18.30;13.70;;;;;;;;;;741904;187;919079;-76
2021/07/23 06:12:55;;;;;;;22.03;14.67;;;;;;;;;;746492;186;919124;-77
2021/07/23 06:15:21;;;;;;;22.17;15.35;;;;;;;;;;746329;186;919065;-76
2021/07/23 06:17:47;;;;;;;22.43;13.73;;;;;;;;;;752760;186;919484;-76
2021/07/23 06:20:13;;;;;;;19.33;14.17;;;;;;;;;;752384;186;919139;-77
2021/07/23 06:22:39;;;;;;;23.27;13.93;;;;;;;;;;748611;186;920607;-77
2021/07/23 06:25:05;;;;;;;23.98;15.80;;;;;;;;;;746492;186;916697;-77
2021/07/23 06:27:31;;;;;;;21.73;15.30;;;;;;;;;;747986;187;918960;-80
2021/07/23 06:29:56;;;;;;;28.00;18.50;;;;;;;;;;746337;186;917501;-82
2021/07/23 06:32:24;;;;;;;22.90;19.77;;;;;;;;;;747845;186;919915;-80
2021/07/23 06:34:48;;;;;;;52.07;44.73;;;;;;;;;;754684;186;1051063;-80
2021/07/23 06:37:20;;;;;;;21.93;15.20;;;;;;;;;;749380;185;1020171;-79
2021/07/23 06:39:40;;;;;;;25.40;16.27;;;;;;;;;;749770;184;815579;-79
2021/07/23 06:42:07;;;;;;;18.50;13.27;;;;;;;;;;728874;186;5481292;-81
2021/07/23 06:44:31;;;;;;;19.13;13.30;;;;;;;;;;759237;182;815950;-78
2021/07/23 06:46:57;;;;;;;20.30;12.40;;;;;;;;;;765785;182;908177;-80
2021/07/23 06:49:23;;;;;;;21.70;13.27;;;;;;;;;;755650;183;919224;-79
2021/07/23 06:51:49;;;;;;;21.90;12.93;;;;;;;;;;769321;183;816874;-80
2021/07/23 06:54:15;;;;;;;17.60;12.37;;;;;;;;;;751114;185;916560;-78
2021/07/23 06:56:41;;;;;;;26.93;14.07;;;;;;;;;;747141;186;919156;-78
2021/07/23 06:59:06;;;;;;;25.80;12.67;;;;;;;;;;751915;187;817172;-78
2021/07/23 07:01:32;;;;;;;23.33;15.83;;;;;;;;;;747345;186;918920;-78
2021/07/23 07:03:58;;;;;;;37.17;24.13;;;;;;;;;;746648;187;860588;-80
2021/07/23 07:06:24;;;;;;;27.33;15.23;;;;;;;;;;751987;186;919017;-76
2021/07/23 07:08:51;;;;;;;16.50;11.60;;;;;;;;;;747133;186;815488;-73
2021/07/23 07:11:16;;;;;;;25.30;15.80;;;;;;;;;;759812;183;917413;-80
2021/07/23 07:13:42;;;;;;;22.08;13.05;;;;;;;;;;763112;183;817384;-76
2021/07/23 07:16:08;;;;;;;21.23;13.30;;;;;;;;;;766037;182;817447;-77
2021/07/23 07:18:33;;;;;;;39.33;29.07;;;;;;;;;;769347;179;1022278;-77
2021/07/23 07:20:59;;;;;;;28.90;18.77;;;;;;;;;;749739;186;1122501;-76
2021/07/23 07:23:25;;;;;;;22.80;13.63;;;;;;;;;;750749;187;916947;-75
2021/07/23 07:25:51;;;;;;;19.00;13.40;;;;;;;;;;763654;179;906366;-78
2021/07/23 07:28:17;;;;;;;20.10;13.40;;;;;;;;;;765364;179;920353;-79
2021/07/23 07:30:46;;;;;;;26.63;13.00;;;;;;;;;;759676;182;918430;-78
2021/07/23 07:33:08;;;;;;;21.50;11.77;;;;;;;;;;748260;187;917926;-77
2021/07/23 07:35:34;;;;;;;21.23;12.03;;;;;;;;;;747504;186;920474;-76
2021/07/23 07:38:00;;;;;;;15.67;12.07;;;;;;;;;;753388;186;732260;-79
2021/07/23 07:40:26;;;;;;;18.30;13.40;;;;;;;;;;757804;183;808209;-73
2021/07/23 07:42:52;;;;;;;21.77;14.00;;;;;;;;;;753249;183;923216;-77
2021/07/23 07:45:18;;;;;;;23.30;13.23;;;;;;;;;;762417;182;1017175;-77
2021/07/23 07:47:43;;;;;;;19.70;12.53;;;;;;;;;;758217;181;1054299;-80
2021/07/23 07:50:10;;;;;;;21.03;15.83;;;;;;;;;;758152;181;1018774;-79
2021/07/23 07:52:36;;;;;;;16.73;10.53;;;;;;;;;;750093;186;915325;-79
2021/07/23 07:55:02;;;;;;;20.00;11.57;;;;;;;;;;759043;183;915782;-77
2021/07/23 07:57:27;;;;;;;23.17;14.30;;;;;;;;;;757940;183;919121;-73
2021/07/23 07:59:53;;;;;;;15.70;11.07;;;;;;;;;;753630;183;1020997;-75
2021/07/23 08:02:19;;;;;;;24.77;13.70;;;;;;;;;;763118;183;816194;-76
2021/07/23 08:04:45;;;;;;;15.33;10.93;;;;;;;;;;748616;187;918688;-76
2021/07/23 08:07:11;;;;;;;17.43;11.53;;;;;;;;;;748265;186;902882;-78
2021/07/23 08:09:46;;;;;;;18.67;9.80;;;;;;;;;;750819;186;825684;-78
2021/07/23 08:12:06;;;;;;;21.83;12.13;;;;;;;;;;748190;187;918361;-79
2021/07/23 08:14:32;;;;;;;16.53;10.43;;;;;;;;;;748898;186;866889;-77
2021/07/23 08:16:58;;;;;;;16.63;9.70;;;;;;;;;;754931;183;822937;-78
2021/07/23 08:19:23;;;;;;;11.03;8.87;;;;;;;;;;761746;184;815089;-75
2021/07/23 08:21:49;;;;;;;14.30;10.53;;;;;;;;;;761360;183;820803;-76
2021/07/23 08:24:15;;;;;;;22.87;11.50;;;;;;;;;;760159;183;916576;-78
2021/07/23 08:26:41;;;;;;;13.63;8.93;;;;;;;;;;757522;184;816141;-76
2021/07/23 08:29:07;;;;;;;14.23;9.37;;;;;;;;;;747023;187;918507;-78
2021/07/23 08:31:33;;;;;;;17.70;12.90;;;;;;;;;;746582;186;919231;-79
2021/07/23 08:33:59;;;;;;;16.20;11.30;;;;;;;;;;749338;186;918295;-76
2021/07/23 08:36:24;;;;;;;13.00;9.70;;;;;;;;;;755474;186;810455;-79
2021/07/23 08:38:51;;;;;;;12.27;9.30;;;;;;;;;;748095;186;816532;-75
2021/07/23 08:41:16;;;;;;;28.60;10.77;;;;;;;;;;747742;186;919339;-75
2021/07/23 08:43:42;;;;;;;13.67;8.80;;;;;;;;;;757388;186;810434;-72
2021/07/23 08:46:09;;;;;;;16.10;9.73;;;;;;;;;;760489;183;919214;-77
2021/07/23 08:48:34;;;;;;;19.03;10.50;;;;;;;;;;751419;187;817199;-80
2021/07/23 08:50:59;;;;;;;20.83;10.97;;;;;;;;;;753643;186;917662;-75
2021/07/23 08:53:25;;;;;;;21.53;12.50;;;;;;;;;;759863;183;917911;-80
2021/07/23 08:55:51;;;;;;;16.47;9.87;;;;;;;;;;748401;185;918042;-77
2021/07/23 08:58:18;;;;;;;15.93;8.73;;;;;;;;;;763311;184;919350;-78
2021/07/23 09:00:43;;;;;;;13.73;8.93;;;;;;;;;;760790;181;919526;-77
2021/07/23 09:03:09;;;;;;;14.33;9.57;;;;;;;;;;753499;183;943567;-79
2021/07/23 09:05:35;;;;;;;11.43;8.30;;;;;;;;;;741429;186;919304;-76
2021/07/23 09:08:00;;;;;;;14.80;8.50;;;;;;;;;;757646;182;919437;-78
2021/07/23 09:10:26;;;;;;;23.10;13.03;;;;;;;;;;762154;182;919944;-74
2021/07/23 09:12:52;;;;;;;24.37;10.83;;;;;;;;;;767008;180;923872;-78
2021/07/23 09:15:19;;;;;;;14.57;8.97;;;;;;;;;;758267;184;919509;-76
2021/07/23 09:17:45;;;;;;;14.33;8.97;;;;;;;;;;762513;183;815490;-77
2021/07/23 09:20:11;;;;;;;12.50;8.37;;;;;;;;;;759965;183;920967;-73
2021/07/23 09:22:53;;;;;;;13.10;8.80;;;;;;;;;;755862;183;916525;-77
2021/07/23 09:25:34;;;;;;;13.10;9.10;;;;;;;;;;752887;186;812146;-77
2021/07/23 09:28:00;;;;;;;17.23;9.83;;;;;;;;;;751198;186;920498;-78
2021/07/23 09:30:32;;;;;;;13.53;10.10;;;;;;;;;;748547;186;915357;-80
2021/07/23 09:32:58;;;;;;;15.77;9.13;;;;;;;;;;750798;186;916444;-79
2021/07/23 09:35:23;;;;;;;12.57;9.00;;;;;;;;;;746223;186;916349;-79
2021/07/23 09:37:54;;;;;;;12.47;8.27;;;;;;;;;;752379;184;917953;-79
2021/07/23 09:40:20;;;;;;;13.20;8.20;;;;;;;;;;765934;183;811911;-79
2021/07/23 09:43:01;;;;;;;28.60;8.90;;;;;;;;;;748853;187;913724;-78
2021/07/23 09:45:27;;;;;;;14.60;8.33;;;;;;;;;;755078;183;816412;-79
2021/07/23 09:47:52;;;;;;;14.40;9.20;;;;;;;;;;752789;185;815753;-80
2021/07/23 09:50:18;;;;;;;17.27;9.97;;;;;;;;;;754243;185;919539;-79
2021/07/23 09:52:44;;;;;;;9.40;7.57;;;;;;;;;;750533;184;816878;-77
2021/07/23 09:55:10;;;;;;;12.47;7.87;;;;;;;;;;760490;183;819278;-74
2021/07/23 09:57:36;;;;;;;11.80;8.40;;;;;;;;;;755076;187;816113;-75
2021/07/23 10:00:02;;;;;;;10.17;8.57;;;;;;;;;;749911;186;900620;-78
2021/07/23 10:02:27;;;;;;;11.17;8.93;;;;;;;;;;756379;183;922828;-79
2021/07/23 10:04:56;;;;;;;14.02;8.90;;;;;;;;;;751392;184;918255;-79
2021/07/23 10:07:22;;;;;;;14.97;8.90;;;;;;;;;;743101;186;1024971;-80
2021/07/23 10:09:48;;;;;;;10.88;8.27;;;;;;;;;;745879;187;919466;-78
2021/07/23 10:12:15;;;;;;;14.80;8.70;;;;;;;;;;753089;184;919482;-75
2021/07/23 10:14:40;;;;;;;16.47;9.50;;;;;;;;;;750753;186;899809;-78
2021/07/23 10:17:05;;;;;;;11.27;8.27;;;;;;;;;;758432;182;815562;-76
2021/07/23 10:19:31;;;;;;;12.70;8.57;;;;;;;;;;746623;184;978380;-78
2021/07/23 10:21:57;;;;;;;13.57;7.20;;;;;;;;;;766780;183;817214;-79
2021/07/23 10:24:23;;;;;;;11.40;8.20;;;;;;;;;;759374;183;907531;-76
2021/07/23 10:26:49;;;;;;;11.70;8.50;;;;;;;;;;755870;183;920173;-77
2021/07/23 10:29:15;;;;;;;12.53;8.13;;;;;;;;;;762703;182;1022069;-79
2021/07/23 10:31:41;;;;;;;12.50;8.25;;;;;;;;;;759693;182;816696;-76
2021/07/23 10:34:09;;;;;;;12.40;8.90;;;;;;;;;;751035;187;918731;-72
2021/07/23 10:36:37;;;;;;;15.40;8.00;;;;;;;;;;760378;183;920524;-75
2021/07/23 10:39:08;;;;;;;14.60;9.20;;;;;;;;;;758338;183;919268;-73
2021/07/23 10:41:35;;;;;;;11.67;8.37;;;;;;;;;;753829;183;922234;-76
2021/07/23 10:44:01;;;;;;;17.30;9.00;;;;;;;;;;746525;186;920361;-73
2021/07/23 10:46:33;;;;;;;9.13;7.83;;;;;;;;;;752487;186;918959;-74
2021/07/23 10:48:58;;;;;;;11.90;8.30;;;;;;;;;;750081;186;919334;-73
2021/07/23 10:51:30;;;;;;;10.17;7.73;;;;;;;;;;748530;186;918727;-72
2021/07/23 10:54:02;;;;;;;10.97;8.13;;;;;;;;;;762265;183;925144;-72
2021/07/23 10:56:34;;;;;;;10.13;7.20;;;;;;;;;;743601;186;919248;-71
2021/07/23 10:59:00;;;;;;;10.50;7.67;;;;;;;;;;724102;193;916684;-72
2021/07/23 11:01:26;;;;;;;11.00;6.97;;;;;;;;;;736123;188;1207254;-72
2021/07/23 11:03:58;;;;;;;12.40;7.00;;;;;;;;;;750164;182;918717;-70
2021/07/23 11:06:20;;;;;;;19.70;8.13;;;;;;;;;;747995;189;817306;-70
2021/07/23 11:08:47;;;;;;;8.60;6.47;;;;;;;;;;753903;183;921358;-73
2021/07/23 11:11:13;;;;;;;9.03;7.03;;;;;;;;;;747146;186;915910;-72
2021/07/23 11:13:38;;;;;;;10.13;7.37;;;;;;;;;;747895;184;936510;-72
2021/07/23 11:16:11;;;;;;;9.87;7.03;;;;;;;;;;754384;186;916397;-72
2021/07/23 11:18:37;;;;;;;11.60;8.10;;;;;;;;;;750630;184;914878;-70
2021/07/23 11:21:04;;;;;;;15.67;6.70;;;;;;;;;;753300;183;916249;-72
2021/07/23 11:23:31;;;;;;;10.70;6.23;;;;;;;;;;765009;182;854862;-71
2021/07/23 11:25:58;;;;;;;10.10;7.10;;;;;;;;;;761748;182;927234;-71
2021/07/23 11:28:24;;;;;;;12.40;7.63;;;;;;;;;;757166;182;916174;-71
2021/07/23 11:30:48;;;;;;;10.43;7.77;;;;;;;;;;747569;187;918609;-71
2021/07/23 11:33:14;;;;;;;20.87;8.37;;;;;;;;;;751268;186;918800;-68
2021/07/23 11:35:40;;;;;;;13.53;7.63;;;;;;;;;;748137;186;918424;-68
2021/07/23 11:38:05;;;;;;;13.82;8.30;;;;;;;;;;746577;186;920696;-71
2021/07/23 11:40:31;;;;;;;9.30;7.13;;;;;;;;;;752962;186;918893;-69
2021/07/23 11:42:59;;;;;;;13.10;8.30;;;;;;;;;;756935;181;913383;-72
2021/07/23 11:45:29;;;;;;;13.87;8.80;;;;;;;;;;760034;183;918681;-72
2021/07/23 11:47:56;;;;;;;16.60;8.10;;;;;;;;;;743522;186;921788;-72
2021/07/23 11:50:21;;;;;;;12.00;8.07;;;;;;;;;;765795;183;918608;-72
2021/07/23 11:52:46;;;;;;;13.03;7.93;;;;;;;;;;748937;186;918721;-70
2021/07/23 11:55:13;;;;;;;12.97;8.00;;;;;;;;;;745336;184;977629;-74
2021/07/23 11:57:39;;;;;;;11.47;7.70;;;;;;;;;;763320;183;918980;-72
2021/07/23 12:00:06;;;;;;;10.70;7.33;;;;;;;;;;746578;186;916074;-73
2021/07/23 12:02:32;;;;;;;13.30;9.03;;;;;;;;;;745142;187;915222;-74
2021/07/23 12:05:04;;;;;;;16.23;8.53;;;;;;;;;;753669;186;912376;-72
2021/07/23 12:07:30;;;;;;;16.03;8.10;;;;;;;;;;752766;186;1013349;-73
2021/07/23 12:09:55;;;;;;;11.70;7.50;;;;;;;;;;750651;186;911348;-72
2021/07/23 12:12:22;;;;;;;13.57;8.70;;;;;;;;;;749108;184;916243;-72
2021/07/23 12:14:47;;;;;;;11.93;8.23;;;;;;;;;;751185;186;910908;-72
2021/07/23 12:17:13;;;;;;;16.87;8.27;;;;;;;;;;736489;189;919258;-71
2021/07/23 12:19:39;;;;;;;9.53;7.20;;;;;;;;;;728782;191;919375;-72
2021/07/23 12:22:08;;;;;;;15.50;7.93;;;;;;;;;;765498;182;918906;-72
2021/07/23 12:24:33;;;;;;;9.63;7.77;;;;;;;;;;761130;182;918462;-72
2021/07/23 12:26:59;;;;;;;11.60;9.20;;;;;;;;;;762832;182;919617;-71
2021/07/23 12:29:25;;;;;;;10.17;8.27;;;;;;;;;;764835;182;919083;-72
2021/07/23 12:31:51;;;;;;;12.47;7.60;;;;;;;;;;746530;187;951671;-74
2021/07/23 12:34:18;;;;;;;11.47;8.23;;;;;;;;;;728357;189;918057;-73
2021/07/23 12:36:46;;;;;;;10.23;7.47;;;;;;;;;;743822;187;919013;-73
2021/07/23 12:39:10;;;;;;;10.63;7.67;;;;;;;;;;741168;188;919243;-73
2021/07/23 12:41:37;;;;;;;10.97;6.80;;;;;;;;;;737778;189;919012;-74
2021/07/23 12:44:02;;;;;;;16.50;7.40;;;;;;;;;;758934;182;919052;-72
2021/07/23 12:46:29;;;;;;;10.32;6.97;;;;;;;;;;758516;183;976146;-73
2021/07/23 12:48:54;;;;;;;10.77;6.77;;;;;;;;;;755862;185;919143;-73
2021/07/23 12:51:20;;;;;;;13.87;7.90;;;;;;;;;;747298;186;920857;-73
2021/07/23 12:53:46;;;;;;;10.45;7.20;;;;;;;;;;753471;183;1020622;-71
2021/07/23 12:56:12;;;;;;;8.63;7.40;;;;;;;;;;761151;184;918666;-73
2021/07/23 12:58:38;;;;;;;7.93;6.63;;;;;;;;;;749085;186;920687;-70
2021/07/23 13:01:05;;;;;;;10.10;6.57;;;;;;;;;;749618;186;922104;-71
2021/07/23 13:03:31;;;;;;;13.77;7.80;;;;;;;;;;751133;186;919391;-73
2021/07/23 13:05:57;;;;;;;8.50;6.57;;;;;;;;;;735214;187;919029;-71
2021/07/23 13:08:23;;;;;;;9.17;6.53;;;;;;;;;;744058;187;919019;-73
2021/07/23 13:10:52;;;;;;;8.10;6.45;;;;;;;;;;747015;186;1014216;-72
2021/07/23 13:13:18;;;;;;;9.43;6.93;;;;;;;;;;764654;182;919845;-71
2021/07/23 13:15:44;;;;;;;10.87;7.10;;;;;;;;;;753567;183;919317;-69
2021/07/23 13:18:10;;;;;;;13.63;7.33;;;;;;;;;;746758;186;919146;-70
2021/07/23 13:20:36;;;;;;;7.93;6.70;;;;;;;;;;750593;186;918738;-72
2021/07/23 13:23:01;;;;;;;9.20;6.53;;;;;;;;;;749188;183;919722;-71
2021/07/23 13:25:27;;;;;;;10.60;7.70;;;;;;;;;;760504;183;918840;-73
2021/07/23 13:27:53;;;;;;;11.23;6.47;;;;;;;;;;755845;186;919747;-72
2021/07/23 13:30:20;;;;;;;15.73;7.30;;;;;;;;;;757072;184;919908;-72
2021/07/23 13:32:46;;;;;;;9.60;6.67;;;;;;;;;;749500;184;919253;-71
2021/07/23 13:35:11;;;;;;;7.60;6.20;;;;;;;;;;747307;187;919803;-73
2021/07/23 13:37:37;;;;;;;9.10;6.57;;;;;;;;;;752350;184;919527;-72
2021/07/23 13:40:03;;;;;;;9.67;6.60;;;;;;;;;;745740;186;922445;-71
2021/07/23 13:42:28;;;;;;;13.83;7.00;;;;;;;;;;746382;186;919238;-73
2021/07/23 13:44:54;;;;;;;9.33;7.20;;;;;;;;;;753481;186;918388;-73
2021/07/23 13:47:22;;;;;;;9.27;6.70;;;;;;;;;;752548;185;918789;-73
2021/07/23 13:49:46;;;;;;;9.03;7.63;;;;;;;;;;749662;186;1020977;-72
2021/07/23 13:52:12;;;;;;;9.90;7.37;;;;;;;;;;753753;186;919221;-73
2021/07/23 13:54:38;;;;;;;10.90;7.17;;;;;;;;;;737119;186;927012;-73
2021/07/23 13:57:04;;;;;;;11.30;7.43;;;;;;;;;;747977;187;918348;-72
2021/07/23 13:59:31;;;;;;;9.20;7.00;;;;;;;;;;751304;186;1071467;-73
2021/07/23 14:01:55;;;;;;;16.07;8.97;;;;;;;;;;748070;186;919043;-73
2021/07/23 14:04:21;;;;;;;11.47;6.57;;;;;;;;;;746906;187;917447;-72